sensor_id;sensor_type;location;lat;lon;timestamp;P1;durP1;ratioP1;P2;durP2;ratioP2
70592;SDS011;58294;42.988;20.338;2023-04-25T00:01:30;36.25;;;29.55;;
70592;SDS011;58294;42.988;20.338;2023-04-25T00:03:58;37.65;;;31.42;;
70592;SDS011;58294;42.988;20.338;2023-04-25T00:06:26;37.55;;;31.15;;
70592;SDS011;58294;42.988;20.338;2023-04-25T00:08:52;38.22;;;31.38;;
70592;SDS011;58294;42.988;20.338;2023-04-25T00:11:18;40.92;;;31.27;;
70592;SDS011;58294;42.988;20.338;2023-04-25T00:13:44;30.23;;;25.75;;
70592;SDS011;58294;42.988;20.338;2023-04-25T00:16:11;38.83;;;27.98;;
70592;SDS011;58294;42.988;20.338;2023-04-25T00:18:39;34.22;;;26.70;;
70592;SDS011;58294;42.988;20.338;2023-04-25T00:21:07;29.38;;;26.45;;
70592;SDS011;58294;42.988;20.338;2023-04-25T00:23:32;27.55;;;23.92;;
70592;SDS011;58294;42.988;20.338;2023-04-25T00:26:00;24.23;;;20.25;;
70592;SDS011;58294;42.988;20.338;2023-04-25T00:28:26;27.35;;;21.98;;
70592;SDS011;58294;42.988;20.338;2023-04-25T00:30:52;29.13;;;23.10;;
70592;SDS011;58294;42.988;20.338;2023-04-25T00:33:18;34.75;;;26.60;;
70592;SDS011;58294;42.988;20.338;2023-04-25T00:35:43;34.22;;;27.90;;
70592;SDS011;58294;42.988;20.338;2023-04-25T00:38:09;36.65;;;27.25;;
70592;SDS011;58294;42.988;20.338;2023-04-25T00:40:35;38.17;;;26.95;;
70592;SDS011;58294;42.988;20.338;2023-04-25T00:43:01;29.33;;;19.65;;
70592;SDS011;58294;42.988;20.338;2023-04-25T00:45:27;24.52;;;18.00;;
70592;SDS011;58294;42.988;20.338;2023-04-25T00:47:57;20.00;;;16.88;;
70592;SDS011;58294;42.988;20.338;2023-04-25T00:50:23;22.30;;;16.92;;
70592;SDS011;58294;42.988;20.338;2023-04-25T00:52:49;27.13;;;21.05;;
70592;SDS011;58294;42.988;20.338;2023-04-25T00:55:16;27.60;;;22.52;;
70592;SDS011;58294;42.988;20.338;2023-04-25T00:57:42;32.13;;;21.17;;
70592;SDS011;58294;42.988;20.338;2023-04-25T01:00:08;17.73;;;14.13;;
70592;SDS011;58294;42.988;20.338;2023-04-25T01:02:35;22.02;;;17.98;;
70592;SDS011;58294;42.988;20.338;2023-04-25T01:05:01;26.15;;;22.55;;
70592;SDS011;58294;42.988;20.338;2023-04-25T01:07:28;37.90;;;30.48;;
70592;SDS011;58294;42.988;20.338;2023-04-25T01:09:54;33.60;;;27.00;;
70592;SDS011;58294;42.988;20.338;2023-04-25T01:12:20;31.58;;;21.67;;
70592;SDS011;58294;42.988;20.338;2023-04-25T01:14:46;28.08;;;22.42;;
70592;SDS011;58294;42.988;20.338;2023-04-25T01:17:12;31.15;;;22.90;;
70592;SDS011;58294;42.988;20.338;2023-04-25T01:19:40;35.70;;;28.45;;
70592;SDS011;58294;42.988;20.338;2023-04-25T01:22:06;32.28;;;25.15;;
70592;SDS011;58294;42.988;20.338;2023-04-25T01:24:32;31.60;;;25.60;;
70592;SDS011;58294;42.988;20.338;2023-04-25T01:26:58;27.70;;;23.77;;
70592;SDS011;58294;42.988;20.338;2023-04-25T01:29:25;20.50;;;15.98;;
70592;SDS011;58294;42.988;20.338;2023-04-25T01:31:52;19.08;;;16.17;;
70592;SDS011;58294;42.988;20.338;2023-04-25T01:34:18;19.60;;;16.00;;
70592;SDS011;58294;42.988;20.338;2023-04-25T01:36:44;28.08;;;20.80;;
70592;SDS011;58294;42.988;20.338;2023-04-25T01:39:12;26.00;;;20.50;;
70592;SDS011;58294;42.988;20.338;2023-04-25T01:41:38;18.35;;;16.23;;
70592;SDS011;58294;42.988;20.338;2023-04-25T01:44:04;18.08;;;15.73;;
70592;SDS011;58294;42.988;20.338;2023-04-25T01:46:30;20.23;;;17.02;;
70592;SDS011;58294;42.988;20.338;2023-04-25T01:48:56;23.27;;;20.42;;
70592;SDS011;58294;42.988;20.338;2023-04-25T01:51:22;24.55;;;20.77;;
70592;SDS011;58294;42.988;20.338;2023-04-25T01:53:48;24.88;;;21.13;;
70592;SDS011;58294;42.988;20.338;2023-04-25T01:56:14;21.13;;;17.48;;
70592;SDS011;58294;42.988;20.338;2023-04-25T01:58:40;18.58;;;16.67;;
70592;SDS011;58294;42.988;20.338;2023-04-25T02:01:05;24.30;;;19.35;;
70592;SDS011;58294;42.988;20.338;2023-04-25T02:03:31;20.52;;;15.75;;
70592;SDS011;58294;42.988;20.338;2023-04-25T02:05:58;17.95;;;14.80;;
70592;SDS011;58294;42.988;20.338;2023-04-25T02:08:24;24.52;;;20.52;;
70592;SDS011;58294;42.988;20.338;2023-04-25T02:10:51;21.52;;;17.50;;
70592;SDS011;58294;42.988;20.338;2023-04-25T02:13:17;19.80;;;14.70;;
70592;SDS011;58294;42.988;20.338;2023-04-25T02:15:43;21.45;;;17.90;;
70592;SDS011;58294;42.988;20.338;2023-04-25T02:18:08;21.88;;;16.35;;
70592;SDS011;58294;42.988;20.338;2023-04-25T02:20:35;16.23;;;12.40;;
70592;SDS011;58294;42.988;20.338;2023-04-25T02:23:02;18.33;;;13.70;;
70592;SDS011;58294;42.988;20.338;2023-04-25T02:25:28;17.50;;;14.00;;
70592;SDS011;58294;42.988;20.338;2023-04-25T02:27:54;17.75;;;14.65;;
70592;SDS011;58294;42.988;20.338;2023-04-25T02:30:20;21.52;;;14.68;;
70592;SDS011;58294;42.988;20.338;2023-04-25T02:32:45;18.20;;;14.02;;
70592;SDS011;58294;42.988;20.338;2023-04-25T02:35:11;19.63;;;14.05;;
70592;SDS011;58294;42.988;20.338;2023-04-25T02:37:38;13.95;;;12.23;;
70592;SDS011;58294;42.988;20.338;2023-04-25T02:40:04;13.50;;;10.95;;
70592;SDS011;58294;42.988;20.338;2023-04-25T02:42:32;11.95;;;9.07;;
70592;SDS011;58294;42.988;20.338;2023-04-25T02:44:57;10.43;;;8.80;;
70592;SDS011;58294;42.988;20.338;2023-04-25T02:47:23;11.10;;;7.70;;
70592;SDS011;58294;42.988;20.338;2023-04-25T02:49:49;10.70;;;8.02;;
70592;SDS011;58294;42.988;20.338;2023-04-25T02:52:15;11.63;;;9.55;;
70592;SDS011;58294;42.988;20.338;2023-04-25T02:54:41;15.20;;;9.20;;
70592;SDS011;58294;42.988;20.338;2023-04-25T02:57:07;19.05;;;12.55;;
70592;SDS011;58294;42.988;20.338;2023-04-25T02:59:33;16.77;;;14.32;;
70592;SDS011;58294;42.988;20.338;2023-04-25T03:01:59;20.15;;;14.70;;
70592;SDS011;58294;42.988;20.338;2023-04-25T03:04:25;18.90;;;15.35;;
70592;SDS011;58294;42.988;20.338;2023-04-25T03:06:51;16.55;;;14.52;;
70592;SDS011;58294;42.988;20.338;2023-04-25T03:09:17;13.30;;;11.45;;
70592;SDS011;58294;42.988;20.338;2023-04-25T03:11:43;14.07;;;11.52;;
70592;SDS011;58294;42.988;20.338;2023-04-25T03:14:09;12.27;;;11.05;;
70592;SDS011;58294;42.988;20.338;2023-04-25T03:16:35;15.70;;;12.13;;
70592;SDS011;58294;42.988;20.338;2023-04-25T03:19:01;15.07;;;10.98;;
70592;SDS011;58294;42.988;20.338;2023-04-25T03:21:28;15.25;;;13.32;;
70592;SDS011;58294;42.988;20.338;2023-04-25T03:23:54;18.60;;;14.07;;
70592;SDS011;58294;42.988;20.338;2023-04-25T03:26:20;23.92;;;16.98;;
70592;SDS011;58294;42.988;20.338;2023-04-25T03:28:46;24.50;;;22.00;;
70592;SDS011;58294;42.988;20.338;2023-04-25T03:31:12;30.52;;;23.83;;
70592;SDS011;58294;42.988;20.338;2023-04-25T03:33:37;25.52;;;19.67;;
70592;SDS011;58294;42.988;20.338;2023-04-25T03:36:03;20.45;;;18.13;;
70592;SDS011;58294;42.988;20.338;2023-04-25T03:38:30;19.13;;;15.43;;
70592;SDS011;58294;42.988;20.338;2023-04-25T03:40:56;16.73;;;15.00;;
70592;SDS011;58294;42.988;20.338;2023-04-25T03:43:22;22.40;;;19.90;;
70592;SDS011;58294;42.988;20.338;2023-04-25T03:45:48;18.88;;;15.13;;
70592;SDS011;58294;42.988;20.338;2023-04-25T03:48:13;18.27;;;15.25;;
70592;SDS011;58294;42.988;20.338;2023-04-25T03:50:39;17.38;;;14.90;;
70592;SDS011;58294;42.988;20.338;2023-04-25T03:53:05;16.65;;;14.23;;
70592;SDS011;58294;42.988;20.338;2023-04-25T03:55:31;24.88;;;18.13;;
70592;SDS011;58294;42.988;20.338;2023-04-25T03:57:57;29.55;;;20.38;;
70592;SDS011;58294;42.988;20.338;2023-04-25T04:00:23;28.15;;;20.55;;
70592;SDS011;58294;42.988;20.338;2023-04-25T04:02:50;20.75;;;16.73;;
70592;SDS011;58294;42.988;20.338;2023-04-25T04:05:16;26.17;;;19.58;;
70592;SDS011;58294;42.988;20.338;2023-04-25T04:07:42;21.80;;;18.27;;
70592;SDS011;58294;42.988;20.338;2023-04-25T04:10:10;20.15;;;16.50;;
70592;SDS011;58294;42.988;20.338;2023-04-25T04:12:37;23.17;;;18.35;;
70592;SDS011;58294;42.988;20.338;2023-04-25T04:15:03;22.15;;;16.58;;
70592;SDS011;58294;42.988;20.338;2023-04-25T04:17:30;26.33;;;18.10;;
70592;SDS011;58294;42.988;20.338;2023-04-25T04:19:57;26.52;;;18.17;;
70592;SDS011;58294;42.988;20.338;2023-04-25T04:22:23;21.27;;;16.67;;
70592;SDS011;58294;42.988;20.338;2023-04-25T04:24:50;24.42;;;17.52;;
70592;SDS011;58294;42.988;20.338;2023-04-25T04:27:17;28.77;;;24.45;;
70592;SDS011;58294;42.988;20.338;2023-04-25T04:29:44;33.60;;;26.73;;
70592;SDS011;58294;42.988;20.338;2023-04-25T04:32:11;25.42;;;20.77;;
70592;SDS011;58294;42.988;20.338;2023-04-25T04:34:38;23.65;;;19.70;;
70592;SDS011;58294;42.988;20.338;2023-04-25T04:37:04;18.25;;;16.27;;
70592;SDS011;58294;42.988;20.338;2023-04-25T04:39:32;19.58;;;15.15;;
70592;SDS011;58294;42.988;20.338;2023-04-25T04:41:58;23.67;;;16.65;;
70592;SDS011;58294;42.988;20.338;2023-04-25T04:44:26;29.08;;;20.00;;
70592;SDS011;58294;42.988;20.338;2023-04-25T04:46:53;38.47;;;26.42;;
70592;SDS011;58294;42.988;20.338;2023-04-25T04:49:19;48.22;;;32.28;;
70592;SDS011;58294;42.988;20.338;2023-04-25T04:51:46;49.92;;;32.63;;
70592;SDS011;58294;42.988;20.338;2023-04-25T04:54:12;57.00;;;36.75;;
70592;SDS011;58294;42.988;20.338;2023-04-25T04:56:38;51.33;;;36.05;;
70592;SDS011;58294;42.988;20.338;2023-04-25T04:59:04;62.05;;;38.05;;
70592;SDS011;58294;42.988;20.338;2023-04-25T05:01:30;50.55;;;34.17;;
70592;SDS011;58294;42.988;20.338;2023-04-25T05:03:56;48.92;;;32.03;;
70592;SDS011;58294;42.988;20.338;2023-04-25T05:06:25;49.33;;;33.88;;
70592;SDS011;58294;42.988;20.338;2023-04-25T05:08:53;49.15;;;30.35;;
70592;SDS011;58294;42.988;20.338;2023-04-25T05:11:19;45.30;;;29.65;;
70592;SDS011;58294;42.988;20.338;2023-04-25T05:13:46;42.75;;;30.13;;
70592;SDS011;58294;42.988;20.338;2023-04-25T05:16:12;42.50;;;29.17;;
70592;SDS011;58294;42.988;20.338;2023-04-25T05:18:39;48.03;;;28.25;;
70592;SDS011;58294;42.988;20.338;2023-04-25T05:21:05;48.30;;;30.02;;
70592;SDS011;58294;42.988;20.338;2023-04-25T05:23:32;48.92;;;29.65;;
70592;SDS011;58294;42.988;20.338;2023-04-25T05:26:03;41.75;;;30.20;;
70592;SDS011;58294;42.988;20.338;2023-04-25T05:28:29;45.63;;;31.45;;
70592;SDS011;58294;42.988;20.338;2023-04-25T05:30:55;38.78;;;29.88;;
70592;SDS011;58294;42.988;20.338;2023-04-25T05:33:21;42.38;;;31.02;;
70592;SDS011;58294;42.988;20.338;2023-04-25T05:35:47;44.90;;;34.92;;
70592;SDS011;58294;42.988;20.338;2023-04-25T05:38:13;65.05;;;46.58;;
70592;SDS011;58294;42.988;20.338;2023-04-25T05:40:39;55.80;;;41.45;;
70592;SDS011;58294;42.988;20.338;2023-04-25T05:43:05;55.33;;;42.40;;
70592;SDS011;58294;42.988;20.338;2023-04-25T05:45:32;63.20;;;43.78;;
70592;SDS011;58294;42.988;20.338;2023-04-25T05:47:58;51.20;;;38.85;;
70592;SDS011;58294;42.988;20.338;2023-04-25T05:50:23;51.55;;;40.03;;
70592;SDS011;58294;42.988;20.338;2023-04-25T05:52:50;56.08;;;40.33;;
70592;SDS011;58294;42.988;20.338;2023-04-25T05:55:16;56.63;;;43.25;;
70592;SDS011;58294;42.988;20.338;2023-04-25T05:57:42;60.45;;;44.20;;
70592;SDS011;58294;42.988;20.338;2023-04-25T06:00:10;78.97;;;62.38;;
70592;SDS011;58294;42.988;20.338;2023-04-25T06:02:41;71.75;;;49.08;;
70592;SDS011;58294;42.988;20.338;2023-04-25T06:05:07;56.03;;;46.05;;
70592;SDS011;58294;42.988;20.338;2023-04-25T06:07:33;62.22;;;50.03;;
70592;SDS011;58294;42.988;20.338;2023-04-25T06:09:59;63.97;;;49.47;;
70592;SDS011;58294;42.988;20.338;2023-04-25T06:12:26;83.10;;;61.92;;
70592;SDS011;58294;42.988;20.338;2023-04-25T06:14:51;72.15;;;57.90;;
70592;SDS011;58294;42.988;20.338;2023-04-25T06:17:17;60.75;;;48.67;;
70592;SDS011;58294;42.988;20.338;2023-04-25T06:19:43;63.88;;;48.25;;
70592;SDS011;58294;42.988;20.338;2023-04-25T06:22:09;58.92;;;46.72;;
70592;SDS011;58294;42.988;20.338;2023-04-25T06:24:35;68.57;;;49.10;;
70592;SDS011;58294;42.988;20.338;2023-04-25T06:27:02;60.15;;;46.13;;
70592;SDS011;58294;42.988;20.338;2023-04-25T06:29:28;76.82;;;57.97;;
70592;SDS011;58294;42.988;20.338;2023-04-25T06:31:54;77.50;;;61.60;;
70592;SDS011;58294;42.988;20.338;2023-04-25T06:34:20;74.25;;;64.43;;
70592;SDS011;58294;42.988;20.338;2023-04-25T06:36:46;68.03;;;52.22;;
70592;SDS011;58294;42.988;20.338;2023-04-25T06:39:12;34.33;;;28.48;;
70592;SDS011;58294;42.988;20.338;2023-04-25T06:41:37;40.95;;;33.88;;
70592;SDS011;58294;42.988;20.338;2023-04-25T06:44:03;52.00;;;40.22;;
70592;SDS011;58294;42.988;20.338;2023-04-25T06:46:29;50.78;;;38.45;;
70592;SDS011;58294;42.988;20.338;2023-04-25T06:48:55;40.97;;;36.47;;
70592;SDS011;58294;42.988;20.338;2023-04-25T06:51:21;42.95;;;36.75;;
70592;SDS011;58294;42.988;20.338;2023-04-25T06:53:49;41.08;;;34.10;;
70592;SDS011;58294;42.988;20.338;2023-04-25T06:56:15;42.45;;;34.38;;
70592;SDS011;58294;42.988;20.338;2023-04-25T06:58:41;42.92;;;35.80;;
70592;SDS011;58294;42.988;20.338;2023-04-25T07:01:07;43.60;;;34.50;;
70592;SDS011;58294;42.988;20.338;2023-04-25T07:03:33;15.88;;;12.80;;
70592;SDS011;58294;42.988;20.338;2023-04-25T07:05:58;15.23;;;12.85;;
70592;SDS011;58294;42.988;20.338;2023-04-25T07:08:25;16.17;;;12.82;;
70592;SDS011;58294;42.988;20.338;2023-04-25T07:10:50;16.60;;;14.73;;
70592;SDS011;58294;42.988;20.338;2023-04-25T07:13:16;17.90;;;15.50;;
70592;SDS011;58294;42.988;20.338;2023-04-25T07:15:43;9.48;;;8.52;;
70592;SDS011;58294;42.988;20.338;2023-04-25T07:18:09;13.80;;;12.38;;
70592;SDS011;58294;42.988;20.338;2023-04-25T07:20:35;15.65;;;13.48;;
70592;SDS011;58294;42.988;20.338;2023-04-25T07:23:02;17.33;;;14.52;;
70592;SDS011;58294;42.988;20.338;2023-04-25T07:25:27;16.23;;;11.82;;
70592;SDS011;58294;42.988;20.338;2023-04-25T07:27:53;9.60;;;7.55;;
70592;SDS011;58294;42.988;20.338;2023-04-25T07:30:19;7.38;;;6.60;;
70592;SDS011;58294;42.988;20.338;2023-04-25T07:32:45;10.35;;;7.45;;
70592;SDS011;58294;42.988;20.338;2023-04-25T07:35:11;9.52;;;6.57;;
70592;SDS011;58294;42.988;20.338;2023-04-25T07:37:37;9.73;;;8.38;;
70592;SDS011;58294;42.988;20.338;2023-04-25T07:40:03;9.32;;;7.53;;
70592;SDS011;58294;42.988;20.338;2023-04-25T07:42:29;6.35;;;5.65;;
70592;SDS011;58294;42.988;20.338;2023-04-25T07:44:58;7.40;;;6.72;;
70592;SDS011;58294;42.988;20.338;2023-04-25T07:47:30;7.57;;;6.15;;
70592;SDS011;58294;42.988;20.338;2023-04-25T07:49:57;10.82;;;9.48;;
70592;SDS011;58294;42.988;20.338;2023-04-25T07:52:22;10.07;;;8.90;;
70592;SDS011;58294;42.988;20.338;2023-04-25T07:54:48;10.43;;;7.63;;
70592;SDS011;58294;42.988;20.338;2023-04-25T07:57:14;16.92;;;12.73;;
70592;SDS011;58294;42.988;20.338;2023-04-25T07:59:41;13.80;;;11.85;;
70592;SDS011;58294;42.988;20.338;2023-04-25T08:02:07;9.20;;;7.65;;
70592;SDS011;58294;42.988;20.338;2023-04-25T08:04:33;10.85;;;9.38;;
70592;SDS011;58294;42.988;20.338;2023-04-25T08:06:59;13.52;;;11.32;;
70592;SDS011;58294;42.988;20.338;2023-04-25T08:09:25;8.75;;;7.75;;
70592;SDS011;58294;42.988;20.338;2023-04-25T08:11:51;21.92;;;17.75;;
70592;SDS011;58294;42.988;20.338;2023-04-25T08:14:17;18.73;;;16.33;;
70592;SDS011;58294;42.988;20.338;2023-04-25T08:16:42;21.55;;;18.60;;
70592;SDS011;58294;42.988;20.338;2023-04-25T08:19:09;11.30;;;8.25;;
70592;SDS011;58294;42.988;20.338;2023-04-25T08:21:36;9.60;;;8.60;;
70592;SDS011;58294;42.988;20.338;2023-04-25T08:24:02;11.05;;;8.80;;
70592;SDS011;58294;42.988;20.338;2023-04-25T08:26:28;17.35;;;14.05;;
70592;SDS011;58294;42.988;20.338;2023-04-25T08:28:54;11.23;;;8.93;;
70592;SDS011;58294;42.988;20.338;2023-04-25T08:31:19;16.02;;;10.23;;
70592;SDS011;58294;42.988;20.338;2023-04-25T08:33:45;13.65;;;10.57;;
70592;SDS011;58294;42.988;20.338;2023-04-25T08:36:11;10.57;;;8.45;;
70592;SDS011;58294;42.988;20.338;2023-04-25T08:38:37;8.43;;;6.63;;
70592;SDS011;58294;42.988;20.338;2023-04-25T08:41:03;7.47;;;6.38;;
70592;SDS011;58294;42.988;20.338;2023-04-25T08:43:31;6.70;;;5.60;;
70592;SDS011;58294;42.988;20.338;2023-04-25T08:45:58;5.35;;;4.82;;
70592;SDS011;58294;42.988;20.338;2023-04-25T08:48:26;8.88;;;7.60;;
70592;SDS011;58294;42.988;20.338;2023-04-25T08:50:54;9.70;;;8.63;;
70592;SDS011;58294;42.988;20.338;2023-04-25T08:53:21;10.18;;;9.18;;
70592;SDS011;58294;42.988;20.338;2023-04-25T08:55:50;13.93;;;12.43;;
70592;SDS011;58294;42.988;20.338;2023-04-25T08:58:18;8.27;;;7.38;;
70592;SDS011;58294;42.988;20.338;2023-04-25T09:00:46;5.82;;;4.65;;
70592;SDS011;58294;42.988;20.338;2023-04-25T09:03:13;6.97;;;6.28;;
70592;SDS011;58294;42.988;20.338;2023-04-25T09:05:40;7.72;;;6.55;;
70592;SDS011;58294;42.988;20.338;2023-04-25T09:08:06;10.32;;;8.25;;
70592;SDS011;58294;42.988;20.338;2023-04-25T09:10:33;7.35;;;6.60;;
70592;SDS011;58294;42.988;20.338;2023-04-25T09:13:02;8.40;;;7.53;;
70592;SDS011;58294;42.988;20.338;2023-04-25T09:15:50;23.33;;;19.83;;
70592;SDS011;58294;42.988;20.338;2023-04-25T09:18:24;9.95;;;8.20;;
70592;SDS011;58294;42.988;20.338;2023-04-25T09:20:55;9.07;;;8.15;;
70592;SDS011;58294;42.988;20.338;2023-04-25T09:23:22;8.20;;;6.43;;
70592;SDS011;58294;42.988;20.338;2023-04-25T09:25:49;7.60;;;6.80;;
70592;SDS011;58294;42.988;20.338;2023-04-25T09:28:22;6.32;;;4.45;;
70592;SDS011;58294;42.988;20.338;2023-04-25T09:30:54;4.72;;;4.30;;
70592;SDS011;58294;42.988;20.338;2023-04-25T09:33:23;8.85;;;6.93;;
70592;SDS011;58294;42.988;20.338;2023-04-25T09:35:53;5.97;;;4.78;;
70592;SDS011;58294;42.988;20.338;2023-04-25T09:38:21;8.52;;;6.38;;
70592;SDS011;58294;42.988;20.338;2023-04-25T09:40:47;3.92;;;3.20;;
70592;SDS011;58294;42.988;20.338;2023-04-25T09:45:46;6.93;;;5.40;;
70592;SDS011;58294;42.988;20.338;2023-04-25T09:48:16;3.95;;;3.13;;
70592;SDS011;58294;42.988;20.338;2023-04-25T09:50:44;6.25;;;5.20;;
70592;SDS011;58294;42.988;20.338;2023-04-25T09:53:10;5.00;;;3.70;;
70592;SDS011;58294;42.988;20.338;2023-04-25T09:55:36;7.18;;;6.15;;
70592;SDS011;58294;42.988;20.338;2023-04-25T09:58:05;5.32;;;3.88;;
70592;SDS011;58294;42.988;20.338;2023-04-25T10:00:33;7.57;;;5.10;;
70592;SDS011;58294;42.988;20.338;2023-04-25T10:03:03;11.80;;;9.23;;
70592;SDS011;58294;42.988;20.338;2023-04-25T10:05:30;16.77;;;10.00;;
70592;SDS011;58294;42.988;20.338;2023-04-25T10:08:02;10.38;;;7.70;;
70592;SDS011;58294;42.988;20.338;2023-04-25T10:10:31;7.57;;;4.75;;
70592;SDS011;58294;42.988;20.338;2023-04-25T10:13:02;16.92;;;8.77;;
70592;SDS011;58294;42.988;20.338;2023-04-25T10:15:30;3.65;;;2.97;;
70592;SDS011;58294;42.988;20.338;2023-04-25T10:17:58;7.15;;;4.95;;
70592;SDS011;58294;42.988;20.338;2023-04-25T10:20:24;3.67;;;2.60;;
70592;SDS011;58294;42.988;20.338;2023-04-25T10:22:50;9.30;;;7.60;;
70592;SDS011;58294;42.988;20.338;2023-04-25T10:25:21;23.05;;;16.77;;
70592;SDS011;58294;42.988;20.338;2023-04-25T10:27:50;7.45;;;5.63;;
70592;SDS011;58294;42.988;20.338;2023-04-25T10:30:16;7.78;;;6.13;;
70592;SDS011;58294;42.988;20.338;2023-04-25T10:32:43;5.53;;;2.92;;
70592;SDS011;58294;42.988;20.338;2023-04-25T10:35:19;1.92;;;1.70;;
70592;SDS011;58294;42.988;20.338;2023-04-25T10:37:56;4.10;;;3.08;;
70592;SDS011;58294;42.988;20.338;2023-04-25T10:40:23;7.18;;;4.40;;
70592;SDS011;58294;42.988;20.338;2023-04-25T10:42:51;4.97;;;4.03;;
70592;SDS011;58294;42.988;20.338;2023-04-25T10:45:18;3.92;;;2.88;;
70592;SDS011;58294;42.988;20.338;2023-04-25T10:47:45;8.00;;;7.05;;
70592;SDS011;58294;42.988;20.338;2023-04-25T10:50:11;6.07;;;4.22;;
70592;SDS011;58294;42.988;20.338;2023-04-25T10:52:41;6.68;;;5.28;;
70592;SDS011;58294;42.988;20.338;2023-04-25T10:55:07;11.55;;;9.73;;
70592;SDS011;58294;42.988;20.338;2023-04-25T11:02:30;17.80;;;14.05;;
70592;SDS011;58294;42.988;20.338;2023-04-25T11:04:56;14.80;;;11.25;;
70592;SDS011;58294;42.988;20.338;2023-04-25T11:07:33;19.10;;;16.00;;
70592;SDS011;58294;42.988;20.338;2023-04-25T11:10:03;11.40;;;8.88;;
70592;SDS011;58294;42.988;20.338;2023-04-25T11:12:32;7.93;;;6.65;;
70592;SDS011;58294;42.988;20.338;2023-04-25T11:15:02;11.52;;;9.80;;
70592;SDS011;58294;42.988;20.338;2023-04-25T11:17:29;14.15;;;11.57;;
70592;SDS011;58294;42.988;20.338;2023-04-25T11:19:55;13.68;;;10.45;;
70592;SDS011;58294;42.988;20.338;2023-04-25T11:22:21;19.77;;;15.25;;
70592;SDS011;58294;42.988;20.338;2023-04-25T11:24:47;8.90;;;8.02;;
70592;SDS011;58294;42.988;20.338;2023-04-25T11:27:13;11.48;;;8.95;;
70592;SDS011;58294;42.988;20.338;2023-04-25T11:29:40;12.63;;;11.15;;
70592;SDS011;58294;42.988;20.338;2023-04-25T11:32:06;10.68;;;8.95;;
70592;SDS011;58294;42.988;20.338;2023-04-25T11:34:33;9.80;;;7.85;;
70592;SDS011;58294;42.988;20.338;2023-04-25T11:37:00;5.35;;;3.72;;
70592;SDS011;58294;42.988;20.338;2023-04-25T11:39:27;3.95;;;3.10;;
70592;SDS011;58294;42.988;20.338;2023-04-25T11:41:53;4.60;;;3.72;;
70592;SDS011;58294;42.988;20.338;2023-04-25T11:44:19;3.25;;;2.92;;
70592;SDS011;58294;42.988;20.338;2023-04-25T11:46:46;4.60;;;4.15;;
70592;SDS011;58294;42.988;20.338;2023-04-25T11:49:12;6.05;;;5.43;;
70592;SDS011;58294;42.988;20.338;2023-04-25T11:51:39;8.57;;;6.72;;
70592;SDS011;58294;42.988;20.338;2023-04-25T11:54:06;5.72;;;4.22;;
70592;SDS011;58294;42.988;20.338;2023-04-25T11:56:33;5.70;;;4.63;;
70592;SDS011;58294;42.988;20.338;2023-04-25T11:59:00;8.27;;;4.57;;
70592;SDS011;58294;42.988;20.338;2023-04-25T12:01:29;14.38;;;11.43;;
70592;SDS011;58294;42.988;20.338;2023-04-25T12:03:57;17.33;;;15.48;;
70592;SDS011;58294;42.988;20.338;2023-04-25T12:06:30;10.70;;;7.60;;
70592;SDS011;58294;42.988;20.338;2023-04-25T12:09:03;8.98;;;8.02;;
70592;SDS011;58294;42.988;20.338;2023-04-25T12:11:30;9.65;;;5.80;;
70592;SDS011;58294;42.988;20.338;2023-04-25T12:14:02;7.65;;;5.60;;
70592;SDS011;58294;42.988;20.338;2023-04-25T12:16:30;13.00;;;10.07;;
70592;SDS011;58294;42.988;20.338;2023-04-25T12:19:06;10.48;;;7.80;;
70592;SDS011;58294;42.988;20.338;2023-04-25T12:21:39;4.55;;;3.75;;
70592;SDS011;58294;42.988;20.338;2023-04-25T12:24:09;13.52;;;9.00;;
70592;SDS011;58294;42.988;20.338;2023-04-25T12:26:50;7.13;;;4.45;;
70592;SDS011;58294;42.988;20.338;2023-04-25T12:29:22;4.82;;;3.13;;
70592;SDS011;58294;42.988;20.338;2023-04-25T12:31:50;1.85;;;1.75;;
70592;SDS011;58294;42.988;20.338;2023-04-25T12:34:18;5.75;;;4.70;;
70592;SDS011;58294;42.988;20.338;2023-04-25T12:36:44;4.38;;;3.78;;
70592;SDS011;58294;42.988;20.338;2023-04-25T12:39:20;9.65;;;6.72;;
70592;SDS011;58294;42.988;20.338;2023-04-25T12:41:48;5.53;;;4.20;;
70592;SDS011;58294;42.988;20.338;2023-04-25T12:44:14;15.50;;;9.98;;
70592;SDS011;58294;42.988;20.338;2023-04-25T12:46:41;9.82;;;5.30;;
70592;SDS011;58294;42.988;20.338;2023-04-25T12:49:07;10.93;;;8.10;;
70592;SDS011;58294;42.988;20.338;2023-04-25T12:51:33;18.77;;;12.25;;
70592;SDS011;58294;42.988;20.338;2023-04-25T12:54:00;5.70;;;4.95;;
70592;SDS011;58294;42.988;20.338;2023-04-25T12:56:27;9.23;;;6.78;;
70592;SDS011;58294;42.988;20.338;2023-04-25T12:58:53;6.05;;;4.68;;
70592;SDS011;58294;42.988;20.338;2023-04-25T13:01:20;5.57;;;5.00;;
70592;SDS011;58294;42.988;20.338;2023-04-25T13:03:47;3.42;;;3.13;;
70592;SDS011;58294;42.988;20.338;2023-04-25T13:06:14;2.22;;;1.60;;
70592;SDS011;58294;42.988;20.338;2023-04-25T13:08:40;1.88;;;1.77;;
70592;SDS011;58294;42.988;20.338;2023-04-25T13:11:07;6.50;;;3.60;;
70592;SDS011;58294;42.988;20.338;2023-04-25T13:13:33;3.45;;;3.15;;
70592;SDS011;58294;42.988;20.338;2023-04-25T13:16:00;11.23;;;8.07;;
70592;SDS011;58294;42.988;20.338;2023-04-25T13:18:30;9.30;;;7.90;;
70592;SDS011;58294;42.988;20.338;2023-04-25T13:20:56;5.30;;;3.40;;
70592;SDS011;58294;42.988;20.338;2023-04-25T13:23:24;11.25;;;7.38;;
70592;SDS011;58294;42.988;20.338;2023-04-25T13:25:51;15.68;;;8.18;;
70592;SDS011;58294;42.988;20.338;2023-04-25T13:28:17;19.70;;;11.73;;
70592;SDS011;58294;42.988;20.338;2023-04-25T13:30:43;9.43;;;4.10;;
70592;SDS011;58294;42.988;20.338;2023-04-25T13:33:09;8.88;;;3.55;;
70592;SDS011;58294;42.988;20.338;2023-04-25T13:35:36;23.77;;;11.05;;
70592;SDS011;58294;42.988;20.338;2023-04-25T13:38:02;5.70;;;3.20;;
70592;SDS011;58294;42.988;20.338;2023-04-25T13:40:28;2.67;;;1.80;;
70592;SDS011;58294;42.988;20.338;2023-04-25T13:42:55;14.05;;;4.53;;
70592;SDS011;58294;42.988;20.338;2023-04-25T13:45:21;9.07;;;2.65;;
70592;SDS011;58294;42.988;20.338;2023-04-25T13:47:47;10.07;;;5.38;;
70592;SDS011;58294;42.988;20.338;2023-04-25T13:50:13;8.70;;;5.75;;
70592;SDS011;58294;42.988;20.338;2023-04-25T13:52:41;3.90;;;3.05;;
70592;SDS011;58294;42.988;20.338;2023-04-25T13:55:07;7.22;;;3.53;;
70592;SDS011;58294;42.988;20.338;2023-04-25T13:57:33;5.03;;;4.28;;
70592;SDS011;58294;42.988;20.338;2023-04-25T14:00:00;3.88;;;3.15;;
70592;SDS011;58294;42.988;20.338;2023-04-25T14:02:31;5.22;;;3.40;;
70592;SDS011;58294;42.988;20.338;2023-04-25T14:04:57;6.72;;;5.95;;
70592;SDS011;58294;42.988;20.338;2023-04-25T14:07:22;8.18;;;7.47;;
70592;SDS011;58294;42.988;20.338;2023-04-25T14:09:48;6.25;;;5.43;;
70592;SDS011;58294;42.988;20.338;2023-04-25T14:12:16;3.92;;;3.55;;
70592;SDS011;58294;42.988;20.338;2023-04-25T14:14:42;8.60;;;4.38;;
70592;SDS011;58294;42.988;20.338;2023-04-25T14:17:08;3.45;;;3.15;;
70592;SDS011;58294;42.988;20.338;2023-04-25T14:19:35;6.50;;;5.80;;
70592;SDS011;58294;42.988;20.338;2023-04-25T14:22:02;3.90;;;3.60;;
70592;SDS011;58294;42.988;20.338;2023-04-25T14:24:28;4.03;;;3.25;;